﻿_id	date	time	temperature	rainfall	direction	wind	suntime	duration	humidity	pressure
1	20161121	1	9.2	0	北東	1.4		0	84	1022.7
2	20161121	2	7.3	0	南西	0.4		0	92	1023.5
3	20161121	3	7.0	0	南南東	0.8		0	94	1023.4
4	20161121	4	6.9	0	東	1.5	0	0	96	1023.2
5	20161121	5	7.3	0	東北東	0.5	0	0	93	1023.7
6	20161121	6	7.1	0	西南西	1.1	0	0	93	1024.1
7	20161121	7	6.7	0	北	1.3	0	0	95	1024.7
8	20161121	8	8.1	0	南東	0.7	0	0	89	1025.2
9	20161121	9	9.2	0	北北東	1.6	0.2	0	84	1025.0
10	20161121	10	10.7	0	北	1.4	0.4	0	80	1024.4
11	20161121	11	12.0	0	西南西	0.7	1	0	69	1022.9
12	20161121	12	13.3	0	北	1.9	1	0	67	1021.2
13	20161121	13	14.1	0	北北西	1.3	1	0	63	1020.7
14	20161121	14	14.7	0	北北西	1.5	0.9	0	63	1019.5
15	20161121	15	14.0	0	南	2.0	0.7	0	67	1019.5
16	20161121	16	13.4	0	東	1.3	0.1	0	69	1018.7
17	20161121	17	12.7	0	南南東	2.3	0	0	71	1019.0
18	20161121	18	12.3	0	南東	2.9	0	0	72	1019.7
19	20161121	19	11.4	0	南東	4.4	0	0	71	1019.9
20	20161121	20	10.9	0	東南東	4.5	0	0	65	1019.5
21	20161121	21	10.7	0	東北東	2.1		0	69	1018.9
22	20161121	22	10.3	0	東南東	1.1		0	70	1018.0
23	20161121	23	8.7	0	西北西	1.5		0	85	1016.8
24	20161121	1	9.2	0	北東	1.4		0	84	1022.7
25	20161121	2	7.3	0	南西	0.4		0	92	1023.5
26	20161121	3	7.0	0	南南東	0.8		0	94	1023.4
27	20161121	4	6.9	0	東	1.5	0	0	96	1023.2
28	20161121	5	7.3	0	東北東	0.5	0	0	93	1023.7
29	20161121	6	7.1	0	西南西	1.1	0	0	93	1024.1
30	20161121	7	6.7	0	北	1.3	0	0	95	1024.7
31	20161121	8	8.1	0	南東	0.7	0	0	89	1025.2
32	20161121	9	9.2	0	北北東	1.6	0.2	0	84	1025.0
33	20161121	10	10.7	0	北	1.4	0.4	0	80	1024.4
34	20161121	11	12.0	0	西南西	0.7	1	0	69	1022.9
35	20161121	12	13.3	0	北	1.9	1	0	67	1021.2
36	20161121	13	14.1	0	北北西	1.3	1	0	63	1020.7
37	20161121	14	14.7	0	北北西	1.5	0.9	0	63	1019.5
38	20161121	15	14.0	0	南	2.0	0.7	0	67	1019.5
39	20161121	16	13.4	0	東	1.3	0.1	0	69	1018.7
40	20161121	17	12.7	0	南南東	2.3	0	0	71	1019.0
41	20161121	18	12.3	0	南東	2.9	0	0	72	1019.7
42	20161121	19	11.4	0	南東	4.4	0	0	71	1019.9
43	20161121	20	10.9	0	東南東	4.5	0	0	65	1019.5
44	20161121	21	10.7	0	東北東	2.1		0	69	1018.9
45	20161121	22	10.3	0	東南東	1.1		0	70	1018.0
46	20161121	23	8.7	0	西北西	1.5		0	85	1016.8
47	20161121	1	9.2	0	北東	1.4	0	0	84	1022.7
48	20161121	2	7.3	0	南西	0.4	0	0	92	1023.5
49	20161121	3	7.0	0	南南東	0.8	0	0	94	1023.4
50	20161121	4	6.9	0	東	1.5	0	0	96	1023.2
51	20161121	5	7.3	0	東北東	0.5	0	0	93	1023.7
52	20161121	6	7.1	0	西南西	1.1	0	0	93	1024.1
53	20161121	7	6.7	0	北	1.3	0	0	95	1024.7
54	20161121	8	8.1	0	南東	0.7	0	0	89	1025.2
55	20161121	9	9.2	0	北北東	1.6	0.2	0	84	1025.0
56	20161121	10	10.7	0	北	1.4	0.4	0	80	1024.4
57	20161121	11	12.0	0	西南西	0.7	1	0	69	1022.9
58	20161121	12	13.3	0	北	1.9	1	0	67	1021.2
59	20161121	13	14.1	0	北北西	1.3	1	0	63	1020.7
60	20161121	14	14.7	0	北北西	1.5	0.9	0	63	1019.5
61	20161121	15	14.0	0	南	2.0	0.7	0	67	1019.5
62	20161121	16	13.4	0	東	1.3	0.1	0	69	1018.7
63	20161121	17	12.7	0	南南東	2.3	0	0	71	1019.0
64	20161121	18	12.3	0	南東	2.9	0	0	72	1019.7
65	20161121	19	11.4	0	南東	4.4	0	0	71	1019.9
66	20161121	20	10.9	0	東南東	4.5	0	0	65	1019.5
67	20161121	21	10.7	0	東北東	2.1	0	0	69	1018.9
68	20161121	22	10.3	0	東南東	1.1	0	0	70	1018.0
69	20161121	23	8.7	0	西北西	1.5	0	0	85	1016.8
70	20161123	1	6.3	0	西	6.0	0	0	73	1015.1
71	20161123	2	5.5	0	西	4.8	0	0	72	1017.0
72	20161123	3	5.0	0	西北西	5.4	0	0	71	1018.0
73	20161123	4	4.9	0	西	6.2	0	0	71	1017.9
74	20161123	5	4.8	0	西	6.0	0	0	73	1018.5
75	20161123	6	4.7	0	西	4.7	0	0	74	1019.3
76	20161123	7	4.5	0	西	5.4	0	0	75	1020.1
77	20161123	8	4.6	0	西	4.5	0	0	77	1020.5
78	20161123	9	5.7	0	西北西	5.4	0.3	0	70	1020.9
79	20161123	10	6.0	0	西	4.3	0.2	0	72	1021.2
80	20161123	11	5.3	0	西北西	6.0	0	0	77	1020.9
81	20161123	12	4.6	0	西北西	6.9	0	0	78	1021.1
82	20161123	13	4.5	0	西北西	5.7	0	0	77	1021.3
83	20161123	14	4.1	0	西北西	4.4	0	0	81	1021.8
84	20161123	15	4.1	0	北西	3.1	0	0	77	1021.6
85	20161123	16	3.1	0	西	2.3	0	0	82	1022.6
86	20161123	17	2.9	0	北西	3.1	0	0	80	1023.2
87	20161123	18	3.1	0	西	4.7	0	0	71	1023.6
88	20161123	19	2.3	0	北西	4.2	0	0	73	1023.8
89	20161123	20	1.9	0	北西	2.7	0	0	72	1024.1
90	20161123	21	1.7	0	西	2.4	0	0	69	1024.2
91	20161123	22	1.6	0	北西	2.2	0	0	70	1023.7
92	20161123	23	1.1	0	北北西	2.2	0	0	74	1023.8
93	20161123	24	1.4	0	西北西	3.0	0	0	72	1023.7
94	20161123	1	6.3	0	西	6.0	0	0	73	1015.1
95	20161123	2	5.5	0	西	4.8	0	0	72	1017.0
96	20161123	3	5.0	0	西北西	5.4	0	0	71	1018.0
97	20161123	4	4.9	0	西	6.2	0	0	71	1017.9
98	20161123	5	4.8	0	西	6.0	0	0	73	1018.5
99	20161123	6	4.7	0	西	4.7	0	0	74	1019.3
100	20161123	7	4.5	0	西	5.4	0	0	75	1020.1
101	20161123	8	4.6	0	西	4.5	0	0	77	1020.5
102	20161123	9	5.7	0	西北西	5.4	0.3	0	70	1020.9
103	20161123	10	6.0	0	西	4.3	0.2	0	72	1021.2
104	20161123	11	5.3	0	西北西	6.0	0	0	77	1020.9
105	20161123	12	4.6	0	西北西	6.9	0	0	78	1021.1
106	20161123	13	4.5	0	西北西	5.7	0	0	77	1021.3
107	20161123	14	4.1	0	西北西	4.4	0	0	81	1021.8
108	20161123	15	4.1	0	北西	3.1	0	0	77	1021.6
109	20161123	16	3.1	0	西	2.3	0	0	82	1022.6
110	20161123	17	2.9	0	北西	3.1	0	0	80	1023.2
111	20161123	18	3.1	0	西	4.7	0	0	71	1023.6
112	20161123	19	2.3	0	北西	4.2	0	0	73	1023.8
113	20161123	20	1.9	0	北西	2.7	0	0	72	1024.1
114	20161123	21	1.7	0	西	2.4	0	0	69	1024.2
115	20161123	22	1.6	0	北西	2.2	0	0	70	1023.7
116	20161123	23	1.1	0	北北西	2.2	0	0	74	1023.8
117	20161123	24	1.4	0	西北西	3.0	0	0	72	1023.7
118	20161124	1	1.2	0	南西	0.5	0	0	74	1022.8
119	20161124	2	1.4	0	北東	1.8	0	0	72	1022.3
120	20161124	3	1.4	0	東	1.5	0	0	72	1021.5
121	20161124	4	1.6	0	東北東	1.4	0	0	70	1021.3
122	20161124	5	1.7	0	北北西	0.5	0	0	72	1020.9
123	20161124	6	1.0	0	西南西	0.7	0	0	83	1021.0
124	20161124	7	1.0	0	西	1.3	0	0	83	1021.0
125	20161124	8	1.4	0	西北西	0.9	0	0	81	1021.3
126	20161124	9	1.8	0	北	0.3	0	0	76	1020.9
127	20161124	10	2.4	0	南	1.3	0	0	76	1020.4
128	20161124	11	2.4	0	北西	1.8	0	0	79	1019.7
129	20161124	12	2.4	0	南西	0.7	0	0	78	1019.5
130	20161124	13	4.8	0	南東	1.1	0.7	0	65	1018.5
131	20161124	14	5.1	0	休止中	0.0	0.9	0	62	1018.2
132	20161124	15	5.1	0	北西	1.8	0.6	0	59	1018.5
133	20161124	16	4.7	0	西	0.9	0	0	62	1019.0
134	20161124	17	3.5	0	西北西	0.6	0	0	70	1019.5
135	20161124	18	2.0	0	南西	1.7	0	0	85	1020.4
136	20161124	19	1.5	0	南南東	1.8	0	0	87	1021.2
137	20161124	20	0.7	0	南	1.5	0	0	89	1021.9
138	20161124	21	-0.2	0	南	0.9	0	0	93	1022.7
139	20161124	22	0.1	0	南南東	1.5	0	0	92	1022.9
140	20161124	23	-0.8	0	東	0.9	0	0	92	1022.8
141	20161124	24	-1.6	0	西北西	1.5	0	0	95	1022.7
142	20161127	1	5.5	0	南東	1.8	0	0	83	1022.5
143	20161127	2	5.2	0	東南東	0.5	0	0	86	1022.1
144	20161127	3	5.3	0	北北西	0.7	0	0	89	1021.7
145	20161127	4	5.2	0	東北東	0.8	0	0	90	1021.6
146	20161127	5	5.0	0	静穏	0.2	0	0	92	1021.3
147	20161127	6	5.0	0	北北東	0.8	0	0	92	1021.2
148	20161127	7	4.8	0	北東	0.7	0	0	95	1021.5
149	20161127	8	5.2	0	北北西	0.8	0	0	91	1020.9
150	20161127	9	5.9	0	南南西	0.6	0	0	86	1020.2
151	20161127	10	6.6	0	西北西	0.7	0	0	83	1019.2
152	20161127	11	7.6	0	北	1.0	0	0	79	1017.9
153	20161127	12	8.0	0	南東	0.6	0	0	78	1016.3
154	20161127	13	8.1	0	北北東	1.6	0	0	79	1015.5
155	20161127	14	8.2	0	北西	1.1	0	0	79	1015.3
156	20161127	15	7.8	0	東北東	0.3	0	0	82	1015.0
157	20161127	16	7.5	0	静穏	0.2	0	0	87	1014.3
158	20161127	17	7.2	1	北	0.5	0	0	92	1014.2
159	20161127	18	6.6	1	静穏	0.0	0	0	97	1013.5
160	20161127	19	6.7	1	北	0.6	0	0	97	1013.6
161	20161127	20	6.7	1	西	0.9	0	0	98	1012.5
162	20161127	21	6.6	1	東南東	1.5	0	0	100	1012.4
163	20161127	22	6.3	1	北北西	3.0	0	0	100	1011.4
164	20161127	23	6.3	0	南	0.5	0	0	100	1010.7
165	20161127	24	6.5	1	南東	1.4	0	0	99	1010.7
166	20161128	1	6.7	0	北西	1.5	0	0	99	1009.8
167	20161128	2	6.6	0	北北東	0.4	0	0	100	1009.4
168	20161128	3	7.5	0	西北西	6.5	0	0	87	1010.4
169	20161128	4	7.4	0	西北西	4.5	0	0	85	1011.1
170	20161128	5	6.9	0	北北西	1.5	0	0	90	1011.7
171	20161128	6	6.9	0	北西	2.3	0	0	88	1012.0
172	20161128	7	7.2	1	西	4.3	0	0	80	1012.4
173	20161128	8	7.0	0	西	3.0	0	0	85	1013.1
174	20161128	9	7.2	0	西北西	4.5	0.1	0	82	1014.0
175	20161128	10	7.5	0	西	5.0	0	0	77	1015.6
176	20161128	11	6.2	0	西北西	6.5	0	0	83	1016.5
177	20161128	12	7.4	0	西北西	5.4	0	0	71	1016.5
178	20161128	13	6.7	0	北西	6.2	0	0	69	1017.2
179	20161128	14	8.6	0	西北西	5.4	0.6	0	60	1016.5
180	20161128	15	6.7	0	西北西	7.2	0.2	0	66	1017.8
181	20161128	16	6.3	0	西北西	4.2	0.5	0	63	1018.3
182	20161128	17	6.0	0	西	4.0	0	0	63	1018.7
183	20161128	18	6.2	0	西北西	4.4	0	0	61	1019.2
184	20161128	19	6.2	0	西北西	4.5	0	0	64	1019.8
185	20161128	20	6.1	0	西北西	4.8	0	0	64	1020.4
186	20161128	21	6.1	0	西	5.3	0	0	60	1020.7
187	20161128	22	6.0	0	西北西	5.8	0	0	62	1020.9
188	20161128	23	5.8	0	西北西	6.1	0	0	62	1021.1
189	20161128	24	5.7	0	西北西	5.8	0	0	58	1021.3
190	20161129	9	5.3	0	南	6.2	0.4	0	66	1025.5
191	20161129	9	5.3	0	南	6.2	0.4	0	66	1025.5
192	20161129	9	5.3	0	￿￿￿k￿￿	6.2	0.4	0	66	1025.5
193	20161129	9	5.3	0	西北西	6.2	0.4	0	66	1025.5
194	20161129	9	5.3	0	西北西	6.2	0.4	0	66	1025.5
195	20161129	10	5.7	0	西北西	6.9	0.3	0	66	1026.0
196	20161129	10	5.7	0	西北西	6.9	0.3	0	66	1026.0
197	20161129	11	5.9	0	西	6.3	0.5	0	67	1025.6
198	20161129	11	5.9	0	西	6.3	0.5	0	67	1025.6
199	20161129	12	7.1	0	西北西	7.5	0.7	0	53	1024.6
200	20161129	13	7.5	0	西北西	5.9	0.5	0	53	1024.7
201	20161129	14	5.0	0	北西	6.7	0.1	0	76	1025.6
202	20161129	15	5.0	0	北西	4.7	0.0	0	77	1026.2
203	20161129	16	4.6	0	西	4.8	0.0	0	83	1026.9
204	20161129	17	4.2	0	西北西	5.5	0.0	0	84	1027.8
205	20161130	7	3.6	0	北北東	1.5	0.0	0	64	1034.6
206	20161130	10	6.8	0	北	2.0	1.0	0	55	1034.0
207	20161130	11	6.5	0	南西	1.6	1.0	0	50	1034.0
208	20161130	12	7.6	0	北北東	1.0	1.0	0	50	1031.9
209	20161130	12	7.6	0	北北東	1.0	1.0	0	50	1031.9
210	20161130	12	7.6	0	北北東	1.0	1.0	0	50	1031.9
211	20161130	15	8.7	0	東	2.7	0.0	0	47	1029.3
212	20161130	16	7.1	0	南南西	1.5	0.0	0	57	1030.0
213	20161130	17	7.3	0	南東	2.8	0.0	0	50	1029.4
214	20161130	18	7.0	0	南南東	1.4	0.0	0	53	1029.8
215	20161201	7	4.1	1	南南西	0.6	0.0	0	98	1023.3
216	20161201	8	4.1	0	北北東	1.7	0.0	0	98	1023.0
217	20161201	10	5.5	0	北	1.0	0.0	0	96	1021.1
218	20161201	11	6.4	0	南東	1.4	0.1	0	89	1019.9
219	20161201	11	6.4	0	南東	1.4	0.1	0	89	1019.9
220	20161201	12	8.3	0	南南東	0.8	0.4	0	87	1017.7
221	20161201	13	10.0	0	南東	0.6	0.4	0	79	1016.2
222	20161201	13	10.0	0	南東	0.6	0.4	0	79	1016.2
223	20161201	14	9.9	0	北北西	2.0	0.4	0	83	1015.0
224	20161201	15	9.3	0	北	2.1	0.1	0	86	1014.7
225	20161201	15	9.3	0	北	2.1	0.1	0	86	1014.7
226	20161201	16	8.9	0	東南東	0.8	0.0	0	94	1014.8
227	20161201	16	8.9	0	東南東	0.8	0.0	0	94	1014.8
228	20161201	16	8.9	0	東南東	0.8	0.0	0	94	1014.8
229	20161201	17	8.7	0	南西	1.0	0.0	0	97	1015.1
230	20161201	17	8.7	0	南西	1.0	0.0	0	97	1015.1
231	20161201	18	8.8	0	東南東	1.2	0.0	0	97	1015.1
232	20161202	8	4.7	0	南東	1.8	0.0	0	87	1024.4
233	20161202	9	5.8	0	南西	1.4	0.1	0	81	1024.3
234	20161202	10	6.5	0	西	2.2	0.0	0	77	1024.3
235	20161202	11	7.0	0	北	1.8	0.0	0	71	1023.9
236	20161202	12	7.2	0	北北西	2.4	0.0	0	69	1023.6
237	20161202	13	7.8	0	西北西	4.0	0.0	0	61	1023.2
238	20161202	14	6.3	0	北北西	4.7	0.0	0	81	1023.7
239	20161202	15	6.2	0	北北西	4.5	0.0	0	83	1024.2
240	20161202	16	6.1	0	北西	2.9	0.0	0	82	1024.5
241	20161202	17	6.3	0	北北西	1.8	0.0	0	81	1024.9
242	20161202	18	6.1	0	北	1.9	0.0	0	82	1025.3
243	20161202	22	5.6	0	北	1.8	0.0	0	87	1026.0
244	20161205	8	4.8	0	南南西	0.5	0.0	0	100	1013.8
245	20161205	9	5.8	0	北北西	1.4	0.1	0	100	1014.6
246	20161205	10	7.0	0	東	0.8	0.0	0	99	1014.6
247	20161205	11	8.7	0	東	0.8	0.0	0	91	1014.0
248	20161205	11	8.7	0	東	0.8	0.0	0	91	1014.0
249	20161205	14	13.2	0	西	0.7	0.3	0	70	1012.0
250	20161205	15	12.9	0	北西	1.9	0.0	0	66	1011.8
251	20161205	16	10.6	0	北北西	2.9	0.2	0	86	1012.9
252	20161205	17	9.7	0	北東	1.2	0.0	0	90	1013.0
253	20161205	17	9.7	0	北東	1.2	0.0	0	90	1013.0
254	20161205	17	9.7	0	北東	1.2	0.0	0	90	1013.0
255	20161206	8	5.8	1	南西	1.4	0.0	0	100	1009.0
256	20161206	9	5.6	2	西北西	8.0	0.0	0	93	1011.7
257	20161206	9	5.6	2	西北西	8.0	0.0	0	93	1011.7
258	20161206	9	5.6	2	西北西	8.0	0.0	0	93	1011.7
259	20161206	10	5.3	0	西北西	7.3	0.0	0	86	1012.7
260	20161206	10	5.3	0	西北西	7.3	0.0	0	86	1012.7
261	20161206	11	5.3	1	西北西	8.3	0.0	0	83	1012.7
262	20161206	11	5.3	1	西北西	8.3	0.0	0	83	1012.7
263	20161206	12	5.2	0	西北西	7.9	0.0	0	77	1012.9
264	20161206	13	4.5	0	西北西	6.3	0.1	0	87	1014.2
265	20161206	13	4.5	0	西北西	6.3	0.1	0	87	1014.2
266	20161206	14	3.9	0	北西	5.2	0.0	0	82	1015.7
267	20161206	14	3.9	0	北西	5.2	0.0	0	82	1015.7
268	20161206	15	3.5	0	北西	7.0	0.0	0	74	1016.8
269	20161206	15	3.5	0	北西	7.0	0.0	0	74	1016.8
270	20161206	16	3.1	0	西北西	7.7	0.0	0	67	1018.2
271	20161206	16	3.1	0	西北西	7.7	0.0	0	67	1018.2
272	20161206	17	2.8	0	西北西	7.3	0.0	0	63	1019.4
273	20161206	17	2.8	0	西北西	7.3	0.0	0	63	1019.4
274	20161208	8	0.7	0	北北東	1.8	0.0	0	100	1019.4
275	20161208	9	1.7	0	南東	0.6	0.0	0	98	1020.3
276	20161208	10	2.8	0	南西	0.8	0.1	0	91	1020.7
277	20161208	11	2.9	0	東南東	0.7	0.0	0	92	1020.6
278	20161208	12	5.3	0	西	0.6	0.4	0	81	1019.6
279	20161208	13	6.0	0	北	2.8	0.1	0	78	1019.2
280	20161208	14	6.1	0	西北西	4.7	0.7	0	71	1019.1
281	20161208	15	6.4	0	西北西	2.3	1.0	0	64	1019.5
282	20161208	15	6.4	0	西北西	2.3	1.0	0	64	1019.5
283	20161208	17	3.4	0	東	1.1	0.0	0	85	1020.2
284	20161209	8	-1.0	0	東	0.9	0.0	0	100	1014.7
285	20161209	10	0.0	0	北	1.5	0.0	0	100	1013.4
286	20161209	11	0.9	0	西北西	0.9	0.0	0	100	1012.0
287	20161209	11	0.9	0	西北西	0.9	0.0	0	100	1012.0
288	20161209	12	3.4	0	東北東	0.9	0.5	0	97	1011.1
289	20161209	13	6.9	0	西北西	2.3	0.9	0	75	1009.2
290	20161209	13	6.9	0	西北西	2.3	0.9	0	75	1009.2
291	20161209	14	7.2	0	北北西	1.5	0.8	0	75	1008.9
292	20161209	14	7.2	0	北北西	1.5	0.8	0	75	1008.9
293	20161209	17	6.1	0	東北東	0.9	0.0	0	88	1009.0
294	20161209	17	6.1	0	東北東	0.9	0.0	0	88	1009.0
295	20161209	17	6.1	0	東北東	0.9	0.0	0	88	1009.0
296	20161209	17	6.1	0	東北東	0.9	0.0	0	88	1009.0
297	20161209	17	6.1	0	東北東	0.9	0.0	0	88	1009.0
298	20161209	17	6.1	0	東北東	0.9	0.0	0	88	1009.0
299	20161211	1	0.0	1	南西	1.3	0	2	98	1020.0
300	20161211	2	0.5	0	西南西	3.7	0	3	86	1019.9
301	20161211	3	0.2	0	西北西	4.2	0	2	87	1019.9
302	20161211	4	0.0	0	西南西	3.3	0	3	88	1020.0
303	20161211	5	0.4	0	西	3.7	0	2	80	1020.1
304	20161211	6	0.6	0	西	3.0	0	2	76	1020.5
305	20161211	7	1.2	0	西	4.5	0	2	67	1021.1
306	20161211	8	1.5	0	西北西	4.0	0.1	2	63	1021.4
307	20161211	9	1.8	0	西北西	4.8	0.1	2	61	1021.8
308	20161211	10	3.1	0	西北西	4.1	0.6	0	56	1021.5
309	20161211	11	2.4	0	北西	6.9	0.6	0	69	1021.5
310	20161211	12	3.3	0	西北西	6.2	0.3	0	60	1020.9
311	20161211	13	4.0	0	西北西	6.0	0.9	0	52	1020.7
312	20161211	14	3.9	0	北西	5.3	0.8	0	58	1021.0
313	20161211	15	3.5	0	西北西	6.4	0.8	0	49	1021.4
314	20161211	16	1.9	0	西北西	6.8	0.3	0	60	1022.4
315	20161211	17	1.2	0	北西	5.4	0	0	67	1023.1
316	20161211	18	1.0	0	西北西	4.7	0	0	67	1023.4
317	20161211	19	1.1	0	西北西	5.8	0	0	65	1023.7
318	20161211	20	0.8	0	西北西	4.2	0	0	69	1024.2
319	20161211	21	1.2	0	西北西	3.9	0	0	65	1025.1
320	20161211	22	1.1	0	西南西	3.4	0	0	72	1025.9
321	20161211	23	1.0	0	西	2.4	0	0	75	1026.7
322	20161211	24	1.5	0	西	3.9	0	0	66	1026.5
323	20161212	1	1.2	0	西北西	3.5	0	0	68	1026.4
324	20161212	2	-0.6	0	北北西	1.8	0	0	79	1026.5
325	20161212	3	-1.7	0	東北東	1.3	0	0	85	1026.3
326	20161212	4	0.7	0	西北西	2.4	0	0	71	1026.4
327	20161212	5	-0.2	0	西	1.5	0	0	75	1026.7
328	20161212	6	-0.8	0	西南西	1.6	0	0	80	1027.1
329	20161212	7	-1.1	0	西	1.6	0	0	83	1027.8
330	20161212	8	1.2	0	西	1.7	0.5	0	71	1028.1
331	20161212	9	1.8	0	北	1.0	0.2	0	70	1028.7
332	20161212	10	4.4	0	西北西	1.9	0.2	0	55	1029.1
333	20161212	11	5.1	0	西北西	4.4	0.6	0	52	1028.1
334	20161212	12	5.7	0	西北西	4.3	0.6	0	47	1027.2
335	20161214	8	2.7	0	南南東	1.9	0.0	0	97	1005.9
336	20161214	9	3.8	0	￿É￿	0.1	0.0	0	92	1005.7
337	20161214	10	4.0	0	北	0.7	0.0	0	95	1005.0
338	20161214	11	5.0	0	西北西	4.2	0.0	0	85	1004.0
339	20161214	12	5.6	0	西北西	4.9	0.0	0	76	1003.3
340	20161214	13	5.9	0	西	5.9	0.1	0	72	1003.2
341	20161214	15	3.4	0	西北西	8.2	0.0	0	78	1005.5
342	20161214	16	2.6	0	西	7.5	0.0	0	80	1006.4
343	20161214	17	2.0	0	西	5.8	0.0	0	88	1007.3
344	20161215	8	-0.1	0	西北西	2.3	0.0	8	85	1014.6
345	20161215	9	0.7	0	北西	2.8	0.4	8	81	1015.1
346	20161215	10	0.4	0	西	3.2	0.1	7	88	1015.6
347	20161215	11	1.3	0	北西	2.9	0.3	5	81	1015.1
348	20161215	12	1.5	0	西北西	2.0	0.2	5	84	1014.7
349	20161215	13	1.6	0	西北西	4.3	0.1	4	81	1014.5
350	20161215	14	1.4	0	西	2.8	0.0	4	82	1014.6
351	20161215	15	0.3	0	西北西	3.7	0.0	5	96	1015.5
352	20161215	16	1.2	0	西北西	2.9	0.0	4	75	1015.7
353	20161215	17	0.3	0	西南西	2.1	0.0	4	77	1016.1
354	20161216	8	-1.5	0	北	0.4	0.0	3	90	1014.6
355	20161216	9	-0.9	0	南	0.4	0.0	3	85	1014.9
356	20161216	10	1.2	0	南西	1.1	1.0	3	75	1014.3
357	20161216	11	2.1	0	西	3.0	0.7	2	70	1013.5
358	20161216	12	1.2	0	西北西	6.7	0.4	1	76	1013.6
359	20161216	13	0.4	0	西北西	4.8	0.1	1	75	1014.0
360	20161216	14	1.8	0	西北西	7.3	0.9	0	53	1013.8
361	20161216	15	0.8	0	西	7.0	0.8	0	63	1014.4
362	20161216	17	0.0	0	西北西	4.5	0.0	0	73	1015.3
363	20161218	8	2.0	0	南南東	0.6	0.1	2	96	1029.4
364	20161218	9	1.8	0	南南東	1.3	0.0	2	97	1029.9
365	20161218	12	2.8	0	西北西	0.8	0.0	1	94	1028.3
366	20161218	12	2.8	0	西北西	0.8	0.0	1	94	1028.3
367	20161219	9	5.0	0	東南東	0.6	0.0	0	94	1027.5
368	20161219	10	6.1	0	北東	0.6	0.0	0	93	1027.5
369	20161219	11	6.4	0	北	2.3	0.2	0	91	1027.0
370	20161219	12	8.5	0	西南西	0.7	0.7	0	79	1025.9
371	20161219	13	9.8	0	北北東	1.5	0.8	0	77	1025.1
372	20161219	14	9.9	0	北北東	1.5	0.3	0	74	1024.9
373	20161219	15	10.8	0	北	1.3	0.8	0	74	1025.0
374	20161220	8	1.9	0	南南西	1.2	0.1	0	100	1027.5
375	20161220	11	6.9	0	南南西	0.6	0.6	0	82	1026.6
376	20161220	11	6.9	0	南南西	0.6	0.6	0	82	1026.6
377	20161220	11	6.9	0	南南西	0.6	0.6	0	82	1026.6
378	20161220	11	6.9	0	南南西	0.6	0.6	0	82	1026.6
379	20161220	11	6.9	0	南南西	0.6	0.6	0	82	1026.6
380	20161220	11	6.9	0	南南西	0.6	0.6	0	82	1026.6
381	20161220	11	6.9	0	南南西	0.6	0.6	0	82	1026.6
382	20161220	11	6.9	0	南南西	0.6	0.6	0	82	1026.6
383	20161220	11	6.9	0	南南西	0.6	0.6	0	82	1026.6
384	20161220	11	6.9	0	南南西	0.6	0.6	0	82	1026.6
385	20161220	11	6.9	0	南南西	0.6	0.6	0	82	1026.6
386	20161220	11	6.9	0	南南西	0.6	0.6	0	82	1026.6
387	20161220	11	6.9	0	南南西	0.6	0.6	0	82	1026.6
388	20161220	13	9.0	0	北	1.7	0.0	0	80	1024.8
389	20161220	13	9.0	0	北	1.7	0.0	0	80	1024.8
390	20161220	13	9.0	0	北	1.7	0.0	0	80	1024.8
391	20161220	13	9.0	0	北	1.7	0.0	0	80	1024.8
392	20161220	13	9.0	0	北	1.7	0.0	0	80	1024.8
393	20161220	13	9.0	0	北	1.7	0.0	0	80	1024.8
394	20161220	13	9.0	0	北	1.7	0.0	0	80	1024.8
395	20161220	13	9.0	0	北	1.7	0.0	0	80	1024.8
396	20161220	13	9.0	0	北	1.7	0.0	0	80	1024.8
397	20161220	13	9.0	0	北	1.7	0.0	0	80	1024.8
398	20161220	13	9.0	0	北	1.7	0.0	0	80	1024.8
399	20161220	13	9.0	0	北	1.7	0.0	0	80	1024.8
400	20161220	13	9.0	0	北	1.7	0.0	0	80	1024.8
401	20161220	14	8.5	0	北西	0.9	0.0	0	86	1025.1
402	20161220	15	7.7	0	北	0.6	0.0	0	89	1026.0
403	20161220	16	7.1	0	�É�	0.0	0.0	0	96	1026.7
404	20161220	17	7.1	0	東	0.5	0.0	0	98	1026.8
405	20161220	18	7.3	0	北西	0.9	0.0	0	97	1027.4
406	20161221	8	5.0	0	北北東	0.9	0.0	0	100	1031.7
407	20161221	9	5.2	0	東北東	0.7	0.0	0	100	1032.3
408	20161221	10	5.7	0	北	1.5	0.0	0	100	1032.0
409	20161221	11	5.8	0	北東	1.0	0.0	0	100	1031.5
410	20161221	18	6.2	0	南南西	0.3	0.0	0	97	1030.6
411	20161221	19	5.2	0	北西	1.1	0.0	0	99	1030.5
412	20161222	9	1.0	0	北	1.2	0.0	0	100	1020.4
413	20161222	10	0.0	0	0	0.0	0.0	0	0	0.0
414	20161222	11	2.2	0	西	0.7	0.0	0	100	1017.1
415	20161222	12	3.0	0	南東	0.6	0.0	0	100	1014.8
416	20161222	13	0.0	0	0	0.0	0.0	0	0	0.0
417	20161222	14	4.6	0	西北西	1.2	0.0	0	97	1011.9
418	20161222	17	5.8	0	東北東	1.0	0.0	0	94	1008.6
419	20161224	22	1.1	0	北東	1.3	0.0	0	92	1028.9
420	20161225	15	4.5	0	北	1.4	0.0	0	87	1031.3
421	20161226	9	-1.2	0	南南東	1.3	0.0	0	100	1029.5
422	20161226	13	0.0	0	0	0.0	0.0	0	0	0.0
423	20161226	15	2.1	0	南東	0.8	0.0	0	87	1022.5
424	20161226	16	2.0	0	北西	1.1	0.0	0	90	1021.9
425	20161226	17	2.2	0	南東	0.5	0.0	0	92	1021.3
426	20161227	9	1.0	0	北北西	0.9	0.0	0	100	1006.2
427	20161227	11	2.0	0	北東	0.9	0.0	0	100	1005.8
428	20161227	13	4.6	0	南南西	0.4	0.0	0	93	1003.5
429	20161227	14	0.0	0	0	0.0	0.0	0	0	0.0
430	20161227	15	0.0	0	0	0.0	0.0	0	0	0.0
431	20161227	17	0.0	0	0	0.0	0.0	0	0	0.0
432	20161228	10	0.2	0	西	6.5	0.3	11	89	1021.9
433	20161228	11	0.9	0	西北西	4.5	0.0	11	82	1022.3
434	20161229	14	2.4	0	北	1.6	0.8	3	66	1015.8
435	20161229	15	4.1	0	北	1.0	0.8	3	61	1014.7
436	20161229	15	4.1	0	北	1.0	0.8	3	61	1014.7
437	20161229	16	0.0	0	0	0.0	0.0	0	0	0.0
438	20161230	13	2.6	0	西北西	8.0	1.0	4	60	1025.2
439	20161230	14	1.9	0	西	7.2	0.8	3	69	1025.8
440	20161230	15	2.1	0	北西	4.0	1.0	3	62	1026.2
441	20161230	16	0.0	0	0	0.0	0.0	0	0	0.0
442	20161230	17	0.0	0	0	0.0	0.0	0	0	0.0
443	20161230	18	0.0	0	0	0.0	0.0	0	0	0.0
444	20161230	19	0.9	0	西	1.8	0.0	3	71	1027.3
445	20161230	20	0.0	0	0	0.0	0.0	0	0	0.0
446	20161230	21	0.7	0	北西	2.5	0.0	3	81	1027.2
447	20161230	22	0.0	0	0	0.0	0.0	0	0	0.0
448	20161230	23	0.0	0	0	0.0	0.0	0	0	0.0
449	20161231	10	1.9	0	北北東	1.5	0.0	3	89	1025.3
450	20161231	11	1.4	0	東南東	1.1	0.0	2	96	1025.1
451	20161231	12	0.0	0	0	0.0	0.0	0	0	0.0
452	20161231	14	2.6	0	北北西	0.8	0.0	2	97	1023.4
453	20161231	15	2.9	0	北	1.5	0.0	1	97	1023.9
454	20161231	15	2.9	0	北	1.5	0.0	1	97	1023.9
455	20161231	16	2.6	0	西南西	0.3	0.0	1	99	1024.3
456	20170101	9	0.0	0	0	0.0	0.0	0	0	0.0
457	20170101	10	3.4	0	北北西	0.5	0.0	0	94	1025.9
458	20170101	13	6.4	0	西北西	3.2	0.4	0	72	1023.7
459	20170101	13	6.4	0	西北西	3.2	0.4	0	72	1023.7
460	20170101	14	5.3	0	北北西	1.8	0.0	0	77	1023.9
461	20170101	15	5.2	0	西	1.5	0.0	0	78	1024.5
462	20170101	16	5.2	0	北西	1.0	0.1	0	80	1024.8
463	20170101	17	3.8	0	南東	0.8	0.0	0	89	1024.9
464	20170101	18	3.9	0	南南西	1.0	0.0	0	89	1024.9
465	20170101	19	0.0	0	0	0.0	0.0	0	0	0.0
466	20170101	20	0.0	0	0	0.0	0.0	0	0	0.0
467	20170101	21	3.8	0	東北東	1.9	0.0	0	95	1024.4
468	20170101	22	3.8	0	東南東	1.7	0.0	0	96	1023.9
469	20170101	23	3.5	0	静穏	0.2	0.0	0	98	1024.1
470	20170104	12	0.8	1	北北東	0.3	0.0	0	100	1013.7
471	20170104	13	0.7	1	南西	1.4	0.0	1	100	1014.3
472	20170104	14	1.6	0	南南東	2.4	0.0	0	98	1014.5
473	20170104	15	0.0	0	0	0.0	0.0	0	0	0.0
474	20170104	16	3.2	0	北北東	2.5	0.1	0	87	1015.0
475	20170104	17	3.3	0	北西	3.1	0.0	0	75	1015.4
476	20170104	18	0.0	0	0	0.0	0.0	0	0	0.0
477	20170104	18	0.0	0	0	0.0	0.0	0	0	0.0
478	20170104	18	2.4	0	西	4.0	0.0	0	86	1016.2
479	20170104	18	2.4	0	西	4.0	0.0	0	86	1016.2
480	20170105	22	-0.9	0	西北西	5.3	0.0	6	85	1025.5
481	20170105	23	-1.5	0	西	3.7	0.0	6	87	1025.5
482	20170109	16	2.8	0	南	1.5	0.0	0	98	1003.8
483	20170109	17	4.2	1	西	4.2	0.0	0	91	1004.6
484	20170109	18	4.4	0	西	4.7	0.0	0	83	1005.4
485	20170109	19	3.9	0	西	5.4	0.0	0	89	1006.5
486	20170109	20	3.8	0	西	3.6	0.0	0	89	1007.3
487	20170111	10	-0.2	0	西南西	2.5	0.4	3	87	1014.4
488	20170112	9	0.0	0	南西	2.2	0.0	23	96	1008.2
489	20170112	9	0.0	0	南西	2.2	0.0	23	96	1008.2
490	20170112	10	0.1	0	西	4.1	0.0	23	93	1007.9
491	20170112	10	0.1	0	西	4.1	0.0	23	93	1007.9
492	20170112	11	0.3	0	西	0.9	0.0	23	94	1007.1
493	20170112	11	0.3	0	西	0.9	0.0	23	94	1007.1
494	20170112	12	0.5	0	西	3.9	0.0	20	88	1006.2
495	20170112	13	0.1	0	西	5.1	0.0	20	90	1006.0
496	20170112	14	-0.2	1	西北西	1.8	0.0	22	98	1006.5
497	20170112	15	-0.1	0	西南西	1.5	0.0	22	94	1005.9
498	20170113	10	0.3	0	北	1.9	0.0	48	91	1003.9
499	20170113	11	0.3	0	北北東	1.4	0.0	47	93	1003.3
500	20170113	12	0.1	0	北	1.8	0.0	45	92	1003.0
501	20170113	13	-0.4	0	北	2.8	0.0	44	96	1003.1
502	20170113	14	-0.1	0	北北西	2.6	0.0	43	89	1003.7
503	20170113	15	-0.2	0	北北西	2.0	0.0	42	85	1004.2
504	20170113	16	-0.8	0	北東	1.4	0.0	41	90	1004.1
505	20170113	17	-1.0	0	南東	0.7	0.0	40	93	1004.1
506	20170113	18	-1.7	0	北東	0.9	0.0	40	94	1003.9
507	20170115	13	-0.4	0	西	3.1	0.8	49	65	1007.9
508	20170115	14	-2.7	0	北西	4.7	0.4	49	88	1008.3
509	20170115	16	-2.6	0	北西	2.6	0.3	50	89	1009.6
510	20170115	17	-3.1	0	南南西	1.7	0.0	50	95	1009.9
511	20170115	18	-3.1	1	西南西	1.9	0.0	52	97	1010.6
512	20170115	19	-3.2	1	南	1.2	0.0	54	98	1010.6
513	20170113	21	-1.7	0	北北西	1.9	0.0	41	94	1004.4
514	20170116	11	-1.3	0	東南東	2.6	0.0	48	86	1010.6
515	20170117	9	-4.5	0	静穏	0.2	0.4	43	97	1024.3
516	20170117	11	1.2	0	西南西	1.6	0.8	42	81	1024.3
517	20170117	15	3.2	0	西北西	3.2	0.9	38	70	1024.6
518	20170118	10	2.2	0	東	0.5	0.6	35	73	1030.1
519	20170118	12	4.0	0	北	1.0	1.0	35	66	1027.9
520	20170119	9	0.9	0	西北西	2.7	0.0	33	76	1023.2
521	20170119	13	3.1	0	西	3.8	0.7	31	59	1020.4
522	20170120	16	2.9	0	南東	2.4	0.0	28	70	1006.4
523	20170123	11	-0.7	0	北北西	4.0	0.1	33	85	1012.2
524	20170125	9	-1.5	0	北北西	1.5	0.3	34	89	1026.6
525	20170125	12	1.4	0	北西	4.4	0.0	34	69	1026.3
526	20170125	13	1.8	0	西北西	5.6	0.4	34	59	1025.7
527	20170125	14	2.2	0	西北西	7.1	0.5	33	57	1025.8
528	20170125	15	1.8	0	北西	6.5	1.0	32	61	1026.5
529	20170125	16	1.1	0	北西	4.4	1.0	32	65	1026.9
530	20170125	17	0.1	0	西北西	4.6	0.1	31	70	1027.0
531	20170126	9	-2.9	0	南南東	0.6	0.0	33	94	1029.8
532	20170126	10	-1.1	0	静穏	0.1	0.0	33	90	1029.6
533	20170126	12	0.0	0	�k�k��	1.5	0.0	33	89	1028.6
534	20170126	12	0.0	0	�k�k��	1.5	0.0	33	89	1028.6
535	20170126	13	0.7	0	�k��	0.7	0.0	33	86	1028.0
536	20170126	14	1.1	0	�k	1.6	0.0	32	87	1027.9
537	20170126	15	2.0	0	�k�k��	1.7	0.0	32	85	1027.7
538	20170126	16	2.3	0	�k	2.6	0.5	31	83	1027.6
539	20170126	17	0.8	0	������	1.0	0.6	31	91	1027.9
540	20170126	18	-0.6	0	����	0.8	0.0	31	97	1028.8
541	20170127	9	-3.8	0	������	1.6	0.0	30	99	1021.0
542	20170127	10	-3.8	0	�k�k��	2.3	0.0	30	98	1020.1
543	20170127	11	-3.6	0	���k��	0.6	0.0	30	99	1019.0
544	20170130	9	0.9	0	�k�k��	0.8	0.0	23	97	1005.2
545	20170130	10	1.8	0	�k�k��	1.3	0.0	23	92	1005.1
546	20170130	11	1.5	0	�k	2.1	0.0	23	90	1004.8
547	20170130	12	1.8	0	���k��	0.5	0.0	23	89	1004.1
548	20170130	13	2.8	0	�k�k��	0.8	0.0	22	90	1003.2
549	20170130	14	3.4	0	�k��	1.8	0.0	22	93	1003.2
550	20170130	15	4.5	1	��	3.4	0.0	22	87	1003.5
551	20170130	16	3.7	0	���k��	4.7	0.0	21	88	1004.6
552	20170130	17	3.2	0	��	6.7	0.0	22	86	1005.4
553	20170130	17	3.2	0	��	6.7	0.0	22	86	1005.4
554	20170131	9	-0.7	0	���k��	4.1	0.1	23	74	1023.3
555	20170131	10	0.3	0	���k��	4.4	0.5	23	68	1023.2
556	20170131	11	1.3	0	���k��	5.8	0.6	22	62	1023.3
557	20170131	12	1.6	0	�k��	5.0	0.7	22	61	1023.0
558	20170131	13	3.0	0	���k��	4.2	0.7	22	52	1022.3
559	20170131	14	1.8	0	���k��	5.9	0.4	21	58	1022.9
560	20170131	15	1.0	0	�k��	4.9	0.0	21	67	1023.0
561	20170131	16	0.3	0	���k��	4.4	0.0	21	76	1023.6
562	20170131	17	-0.2	0	���k��	4.6	0.0	21	81	1024.0
563	20170131	18	0.2	0	��	2.8	0.0	21	72	1024.2
564	20170201	10	-0.1	0	������	1.2	1.0	20	65	1018.0
565	20170201	10	-0.1	0	������	1.2	1.0	20	65	1018.0
566	20170201	11	2.2	0	���k��	1.2	1.0	20	60	1016.2
567	20170201	12	1.7	0	�k	2.6	1.0	20	66	1014.2
568	20170201	13	2.2	0	�k	1.2	1.0	20	60	1012.1
569	20170201	14	2.3	0	�k	0.9	0.7	20	54	1010.9
570	20170201	15	2.7	0	�k	1.7	0.2	20	60	1010.5
571	20170201	16	1.9	0	�k�k��	2.0	0.0	20	78	1010.0
572	20170201	17	0.3	1	������	0.7	0.0	22	99	1009.8
573	20170201	18	0.6	1	�k��	1.3	0.0	23	100	1009.8
574	20170202	9	-2.7	0	���k��	5.3	0.0	30	82	1016.1
575	20170202	10	-2.7	0	��	5.6	0.0	30	90	1016.1
576	20170202	11	-1.9	0	��	3.5	0.0	31	86	1015.6
577	20170202	12	-1.5	0	��	7.4	0.0	30	81	1014.9
578	20170202	13	-1.2	0	��	3.9	0.0	30	84	1014.2
579	20170202	14	-2.1	0	���k��	5.2	0.0	31	93	1014.4
580	20170202	15	-1.9	0	���k��	4.9	0.0	31	91	1014.9
581	20170202	16	-1.8	0	������	2.6	0.0	31	88	1014.6
582	20170202	17	-1.8	0	������	3.7	0.0	31	85	1014.3
583	20170202	18	-2.2	0	��	0.7	0.0	32	94	1013.4
584	20170203	9	1.5	0	���k��	3.6	0.3	38	68	1018.3
585	20170203	10	2.7	0	���k��	6.4	0.7	37	61	1018.5
586	20170203	11	2.3	0	�k��	5.0	0.2	36	64	1018.8
587	20170203	12	2.6	0	���k��	6.9	0.2	34	63	1018.7
588	20170203	13	2.8	0	���k��	6.5	0.1	33	63	1018.6
589	20170203	13	2.8	0	���k��	6.5	0.1	33	63	1018.6
590	20170203	14	3.1	0	���k��	6.5	0.2	31	64	1018.4
591	20170203	15	2.6	0	���k��	5.5	0.1	30	69	1018.6
592	20170203	16	1.5	0	���k��	3.0	0.0	30	87	1019.3
593	20170203	17	2.0	0	�k��	1.6	0.0	30	79	1019.7
594	20170203	18	2.0	0	�k��	3.3	0.0	30	75	1020.2
595	20170206	9	2.8	0	������	2.2	0.0	22	94	1000.2
596	20170206	9	2.8	0	������	2.2	0.0	22	94	1000.2
597	20170206	9	2.8	0	������	2.2	0.0	22	94	1000.2
598	20170206	10	3.5	0	�k��	3.5	0.1	22	87	1000.8
599	20170206	11	3.7	0	���k��	5.4	0.1	22	86	1001.2
600	20170206	12	3.5	0	���k��	3.5	0.2	21	86	1001.0
601	20170206	13	2.3	1	��	6.0	0.0	21	89	1000.6
602	20170206	14	4.0	0	��	5.3	0.2	21	78	1000.4
603	20170206	15	1.8	0	�k��	5.9	0.1	20	93	1001.3
604	20170206	16	1.6	1	�k�k��	5.5	0.0	20	94	1002.0
605	20170206	17	1.1	1	���k��	5.7	0.0	21	97	1003.2
606	20170206	18	1.1	1	��	4.3	0.0	20	96	1004.3
607	20170207	9	0.1	0	��	4.7	0.2	28	73	1011.9
608	20170207	10	-1.1	1	��	5.6	0.0	30	90	1012.8
609	20170207	11	-1.1	0	���k��	5.5	0.3	29	82	1013.0
610	20170207	12	-1.5	0	���k��	6.3	0.0	29	90	1012.5
611	20170207	13	-1.0	0	���k��	5.5	0.0	29	83	1012.3
612	20170207	14	-1.2	0	���k��	7.8	0.4	28	82	1012.9
613	20170207	15	-1.7	0	���k��	4.3	0.3	28	89	1013.7
614	20170207	16	-1.6	0	�k��	6.0	0.0	28	80	1014.4
615	20170207	17	-1.8	0	���k��	5.9	0.0	28	75	1015.0
616	20170207	18	-2.2	0	���k��	5.5	0.0	28	81	1015.3
617	20170208	9	0.7	0	���k��	3.8	0.0	27	73	1015.7
618	20170208	10	1.8	0	���k��	5.3	0.0	27	67	1015.8
619	20170208	11	2.0	0	���k��	5.5	0.0	26	66	1015.4
620	20170208	12	1.9	0	�k��	4.3	0.0	25	71	1014.9
621	20170208	13	2.9	0	�k��	3.6	0.0	25	64	1014.1
622	20170208	14	2.9	0	���k��	6.9	0.4	24	56	1014.1
623	20170208	15	2.6	0	���k��	4.1	0.1	24	57	1014.1
624	20170208	16	2.3	0	���k��	4.3	0.2	24	59	1014.0
625	20170208	17	1.7	0	��	4.4	0.0	24	64	1014.3
626	20170209	9	-1.0	0	�k�k��	1.0	0.0	24	93	1009.7
627	20170209	10	-0.7	0	�k�k��	1.0	0.0	24	88	1008.8
628	20170209	11	-0.4	0	�k�k��	0.7	0.0	24	89	1008.0
629	20170209	12	-0.2	0	�k�k��	0.8	0.0	24	91	1005.6
630	20170209	13	0.5	0	�k��	1.5	0.0	24	88	1003.9
631	20170213	10	0.1	0	����	1.4	0.0	36	76	1024.8
632	20170213	10	0.1	0	����	1.4	0.0	36	76	1024.8
633	20170216	11	0.9	0	�k	1.8	0.8	30	68	1025.6
634	20170216	12	2.5	0	�k	1.3	1.0	30	63	1024.6
635	20170216	13	4.4	0	��	1.5	1.0	29	58	1023.5
636	20170216	14	6.1	0	��	1.6	1.0	29	53	1022.7
637	20170216	15	6.4	0	�k��	0.9	1.0	28	52	1022.3
638	20170216	16	7.3	0	��	1.1	1.0	28	51	1021.9
639	20170216	17	5.2	0	�k�k��	0.7	0.9	28	62	1022.1
640	20170216	18	2.1	0	��	0.6	0.0	28	75	1022.4
641	20170217	9	-3.6	0	���k��	1.0	0.0	28	98	1014.6
642	20170217	10	-0.8	0	������	0.4	0.5	28	99	1013.3
643	20170217	12	1.3	0	������	1.2	0.0	27	85	1010.6
644	20170217	13	2.8	0	�k��	0.7	0.0	27	82	1009.1
645	20170217	14	2.5	0	�k�k��	2.0	0.0	27	90	1008.1
646	20170217	14	2.5	0	�k�k��	2.0	0.0	27	90	1008.1
647	20170217	16	0.7	1	�k�k��	2.6	0.0	26	98	1009.4
648	20170217	17	4.4	2	�k	1.5	0.0	26	98	1011.3
649	20170217	18	2.9	0	�k��	4.0	0.0	26	92	1013.2
650	20170217	19	2.1	0	�k�k��	4.4	0.0	26	96	1015.1
651	20170220	9	-2.3	0	�k�k��	0.9	0.0	26	91	1008.9
652	20170220	10	-2.3	0	�k��	0.9	0.0	26	94	1007.6
653	20170220	11	-1.9	1	�k	0.9	0.0	26	92	1006.0
654	20170220	12	-0.9	1	���k��	0.6	0.0	26	94	1003.6
655	20170220	13	-0.7	1	������	0.3	0.0	26	93	1002.1
656	20170220	14	0.1	1	��	0.6	0.0	25	91	1000.5
657	20170220	15	0.7	0	�k��	1.3	0.0	26	94	1000.3
658	20170220	16	0.5	2	������	0.7	0.0	25	98	999.6
659	20170220	16	0.5	2	������	0.7	0.0	25	98	999.6
660	20170220	18	0.2	1	������	0.6	0.0	25	100	999.3
661	20170220	19	0.3	1	���k��	1.4	0.0	25	100	999.9
662	20170221	8	-1.1	0	���k��	6.0	0.0	33	85	1015.2
663	20170221	9	-1.7	0	���k��	4.5	0.1	33	94	1016.7
664	20170221	10	-1.5	0	�k��	6.0	0.1	35	88	1018.4
665	20170221	11	-2.1	1	���k��	5.4	0.1	37	96	1019.5
666	20170221	12	-1.5	1	���k��	6.0	0.0	39	86	1019.5
667	20170221	14	-1.0	0	���k��	6.6	0.4	37	78	1020.3
668	20170221	15	-1.7	0	���k��	6.3	0.0	38	91	1021.2
669	20170221	16	-1.9	0	���k��	6.6	0.0	39	93	1022.4
670	20170221	17	-1.8	0	���k��	6.7	0.1	39	87	1023.4
671	20170222	9	-1.6	0	����	1.2	0.0	36	80	1028.8
672	20170222	10	-0.7	0	�k	1.0	0.1	36	75	1027.4
673	20170222	11	0.5	0	���k��	1.7	0.3	35	69	1026.0
674	20170222	12	1.6	0	�k��	1.0	0.9	34	64	1024.8
675	20170222	13	1.4	0	�k�k��	2.5	1.0	33	68	1023.4
676	20170222	14	2.3	0	��	1.1	1.0	32	60	1022.5
677	20170222	16	3.0	0	������	0.9	0.1	31	63	1021.4
678	20170222	17	2.5	0	������	1.0	0.4	31	66	1021.7
679	20170222	18	1.4	0	��	2.2	0.0	31	80	1021.1
680	20170222	19	1.3	0	������	0.3	0.0	31	85	1020.5
681	20170223	9	1.0	0	�k	1.8	0.0	29	95	1002.8
682	20170223	10	1.8	0	������	0.6	0.0	29	92	1002.2
683	20170223	11	2.9	0	������	1.1	0.0	29	88	1002.3
684	20170223	12	3.1	0	���k��	1.8	0.0	29	90	1001.1
685	20170223	13	2.5	0	�k��	1.1	0.0	29	94	1000.5
686	20170223	14	2.4	0	���k��	1.3	0.0	28	97	1000.4
687	20170223	15	4.3	0	������	1.9	0.0	28	96	1000.2
688	20170223	16	6.6	0	�k��	1.5	0.0	28	87	1000.9
689	20170223	17	6.0	0	�k��	2.0	0.0	28	85	1001.9
690	20170224	9	-1.6	0	�k	2.4	0.0	29	89	1016.0
691	20170224	10	-1.3	0	�k��	2.9	0.0	30	92	1016.5
692	20170224	11	-0.2	0	�k��	4.6	0.0	30	84	1016.8
693	20170224	12	0.6	0	�k��	5.3	0.0	30	76	1016.7
694	20170224	13	2.1	0	�k�k��	4.9	0.4	28	64	1016.5
695	20170224	14	1.6	0	���k��	5.7	0.1	28	54	1016.5
696	20170224	15	1.5	0	���k��	3.8	0.1	28	59	1016.6
697	20170224	16	1.0	0	���k��	5.3	0.0	27	63	1017.3
698	20170224	17	0.0	0	���k��	5.4	0.0	28	76	1018.0
699	20170224	18	-0.8	0	�k��	3.1	0.0	28	89	1018.8
700	20170227	9	1.8	0	���k��	3.7	0.8	24	60	1028.3
701	20170227	10	2.2	0	���k��	3.0	0.6	24	55	1028.2
702	20170227	11	3.2	0	������	3.8	0.8	24	51	1028.0
703	20170227	12	3.9	0	�k��	3.1	0.6	24	47	1027.1
704	20170227	13	4.7	0	�k�k��	4.7	0.4	24	49	1026.3
705	20170227	14	4.3	0	�k�k��	5.1	0.7	23	54	1026.4
706	20170227	15	3.4	0	�k��	4.4	0.7	23	57	1026.7
707	20170227	16	2.6	0	���k��	3.7	0.2	23	58	1027.1
708	20170227	17	1.9	0	�k��	2.8	0.6	23	60	1027.7
709	20170227	18	1.2	0	��	2.1	0.0	23	63	1028.4
710	20170228	9	-2.6	0	�k	1.2	1.0	23	76	1028.9
711	20170228	10	-0.6	0	�k��	1.5	1.0	22	68	1028.1
712	20170228	11	1.4	0	���k��	1.2	1.0	22	60	1027.4
713	20170228	12	2.7	0	�k��	1.6	1.0	22	57	1026.3
714	20170228	13	3.9	0	�k�k��	1.8	1.0	22	53	1025.0
715	20170228	14	4.6	0	���k��	2.0	1.0	21	50	1024.1
716	20170228	15	5.5	0	�k��	1.5	1.0	21	51	1023.9
717	20170228	16	5.8	0	��	0.7	1.0	21	50	1023.6
718	20170228	17	5.3	0	�k�k��	0.4	1.0	21	50	1023.6
719	20170228	18	2.9	0	����	1.7	0.3	21	62	1024.4
720	20170301	9	-1.7	0	��	1.1	0.0	21	85	1026.1
721	20170301	10	1.1	0	���k��	1.3	0.6	21	74	1025.1
722	20170301	11	2.4	0	�k	1.9	1.0	21	69	1024.1
723	20170301	12	2.8	0	�k�k��	1.1	1.0	20	65	1022.5
724	20170301	13	4.4	0	��	2.1	1.0	19	60	1020.4
725	20170301	14	4.9	0	���k��	1.8	0.9	19	60	1019.5
726	20170301	15	5.7	0	�k��	0.9	0.9	19	51	1019.3
727	20170301	16	6.2	0	���k��	0.7	0.4	19	53	1018.6
728	20170301	17	5.2	0	������	0.9	0.1	19	56	1018.9
729	20170302	9	2.9	0	�k	1.7	1.0	18	76	1011.0
730	20170302	10	4.6	0	�k	1.8	0.9	18	69	1009.9
731	20170302	11	6.0	0	�k��	1.1	0.6	18	68	1008.3
732	20170302	12	6.6	0	���k��	1.7	0.1	17	65	1006.9
733	20170302	13	6.9	0	����	1.8	0.0	17	66	1005.2
734	20170302	14	6.5	0	������	1.5	0.0	17	68	1004.9
735	20170302	15	7.0	0	��	1.6	0.0	17	73	1004.3
736	20170302	16	5.2	0	������	2.0	0.0	17	84	1004.4
737	20170302	17	5.1	0	������	1.4	0.0	16	92	1004.5
738	20170302	18	4.6	1	��	0.9	0.0	16	97	1004.9
739	20170303	9	4.2	0	���k��	5.8	0.5	15	83	1010.4
740	20170303	10	4.4	0	���k��	6.4	0.1	15	83	1011.4
741	20170303	11	3.5	0	�k��	5.5	0.2	14	90	1012.1
742	20170303	12	5.0	0	���k��	5.3	0.4	14	76	1012.1
743	20170303	13	5.2	0	��	5.9	0.9	13	69	1012.6
744	20170303	14	5.3	0	���k��	4.2	0.9	13	63	1013.3
745	20170303	15	5.4	0	���k��	7.1	1.0	12	50	1014.2
746	20170303	16	5.1	0	���k��	3.4	0.9	12	51	1014.9
747	20170303	17	3.9	0	���k��	7.3	0.9	12	56	1015.4
748	20170303	18	3.1	0	��	4.4	0.0	12	65	1016.0
749	20170306	9	2.2	0	�k	1.4	0.4	2	91	1009.8
750	20170306	10	3.2	0	���k��	1.4	0.0	2	86	1008.0
751	20170306	11	4.3	0	�k�k��	0.8	0.0	1	83	1006.6
752	20170306	12	6.1	0	�k�k��	1.6	0.0	1	75	1004.8
753	20170306	13	6.2	0	�k�k��	1.0	0.0	0	72	1002.6
754	20170306	14	6.4	0	�k	2.0	0.0	0	77	1002.0
755	20170306	15	6.9	0	����	1.1	0.0	0	72	1002.2
756	20170306	16	8.0	0	������	2.3	0.0	0	63	1001.5
757	20170306	17	7.8	0	����	1.3	0.0	0	66	1000.8
758	20170306	18	5.6	0	��	1.8	0.0	0	86	1001.7
759	20170306	19	5.4	1	������	0.9	0.0	0	96	1002.9
760	20170307	9	2.3	0	���k��	4.7	1.0	0	59	1006.5
761	20170307	10	1.8	0	���k��	5.7	0.7	0	63	1006.1
762	20170307	11	1.9	0	��	3.3	0.0	0	61	1005.6
763	20170307	12	2.0	0	�k��	3.2	0.0	0	65	1005.1
764	20170307	13	3.1	0	�k��	3.6	0.3	0	55	1003.2
765	20170307	14	2.8	0	�k�k��	4.3	0.6	0	56	1002.6
766	20170307	15	1.4	0	���k��	4.2	0.0	0	71	1004.1
767	20170307	16	1.3	0	�k��	5.0	0.4	0	68	1003.8
768	20170307	17	-0.2	0	���k��	3.9	0.0	0	93	1005.0
769	20170308	9	-0.8	0	������	1.6	0.0	13	94	1007.2
770	20170308	10	0.1	1	���k��	3.3	0.0	14	81	1007.1
771	20170308	11	0.6	0	����	1.5	0.1	11	80	1006.8
772	20170308	12	1.0	0	���k��	3.3	0.1	9	80	1006.4
773	20170308	13	1.6	0	�k��	3.0	0.7	7	80	1005.4
774	20170308	14	2.6	0	���k��	3.4	0.6	6	73	1005.2
775	20170308	15	2.6	0	��	3.6	0.6	5	66	1005.4
776	20170308	16	0.3	0	��	5.4	0.2	4	90	1006.2
777	20170308	17	0.6	0	�k��	1.5	0.0	4	88	1006.6
778	20170308	19	0.1	0	����	1.8	0.0	5	94	1007.5
779	20170309	9	0.9	0	������	1.4	0.0	15	94	1008.4
780	20170309	10	3.4	0	����	0.8	0.7	10	77	1007.6
781	20170309	11	2.7	0	�k	4.3	0.3	7	84	1007.6
782	20170309	12	3.5	0	�k	4.2	0.6	5	81	1007.1
783	20170309	13	5.8	0	���k��	4.2	0.6	3	62	1006.3
784	20170309	14	4.4	0	�k�k��	3.9	0.9	2	77	1006.2
785	20170309	15	3.7	0	�k	3.6	0.7	1	83	1006.6
786	20170309	16	2.5	0	�k	4.2	0.0	0	92	1007.0
787	20170309	17	2.3	0	�k	1.9	0.0	0	97	1007.3
788	20170310	9	1.9	0	������	1.0	0.0	5	83	1011.2
789	20170310	10	1.7	0	������	2.4	0.0	5	93	1012.4
790	20170310	11	2.3	0	��	3.7	0.0	4	81	1013.0
791	20170310	12	4.2	0	��	3.5	0.3	3	68	1012.7
792	20170310	13	2.3	0	���k��	5.0	0.3	2	82	1012.6
793	20170310	14	4.1	0	������	5.3	0.6	1	68	1011.9
794	20170310	15	4.0	0	���k��	5.5	0.4	0	67	1012.0
795	20170310	16	3.0	0	���k��	3.0	0.3	0	81	1012.8
796	20170310	17	1.5	0	�k��	4.6	0.1	0	93	1013.4
797	20170310	18	1.2	0	���k��	2.7	0.0	0	94	1013.8
798	20170310	19	1.4	0	���k��	5.5	0.0	0	88	1015.0
799	20170313	9	1.4	0	������	1.0	0.5	0	80	1021.6
800	20170313	10	3.2	0	��	1.3	0.8	0	71	1020.2
801	20170313	11	6.5	0	���k��	1.1	1.0	0	67	1018.7
802	20170313	12	9.1	0	���k��	2.7	1.0	0	62	1016.9
803	20170313	13	10.0	0	��	2.0	1.0	0	59	1015.6
804	20170313	14	11.0	0	��	5.0	1.0	0	50	1015.1
805	20170313	15	10.7	0	��	5.7	1.0	0	53	1014.8
806	20170313	16	10.1	0	��	5.3	1.0	0	55	1014.7
807	20170313	17	9.2	0	��	4.8	1.0	0	58	1014.8
808	20170313	17	9.2	0	��	4.8	1.0	0	58	1014.8
809	20170313	19	7.2	0	������	3.9	0.0	0	67	1015.6
810	20170313	20	6.8	0	������	3.1	0.0	0	71	1015.6
811	20170314	9	3.8	0	�É�	0.1	0.0	0	94	1013.3
812	20170314	10	4.3	0	������	1.2	0.0	0	93	1012.9
813	20170314	11	4.9	0	�k�k��	0.9	0.0	0	87	1012.3
814	20170314	12	5.3	0	���k��	1.1	0.0	0	86	1011.4
815	20170314	13	5.9	0	�k�k��	2.8	0.0	0	81	1010.4
816	20170314	14	6.6	0	�k�k��	2.8	0.0	0	71	1009.9
